createdAt,value
2022-10-14T00:01:22.780Z,7.47
2022-10-14T00:03:51.421Z,6.90
2022-10-14T00:06:23.458Z,6.50
2022-10-14T00:08:51.932Z,5.70
2022-10-14T00:11:27.701Z,6.27
2022-10-14T00:13:57.549Z,7.00
2022-10-14T00:16:31.246Z,7.77
2022-10-14T00:18:59.811Z,6.47
2022-10-14T00:21:28.959Z,5.67
2022-10-14T00:23:58.087Z,6.10
2022-10-14T00:26:31.618Z,6.63
2022-10-14T00:29:00.444Z,10.80
2022-10-14T00:31:33.055Z,10.93
2022-10-14T00:34:01.497Z,10.90
2022-10-14T00:36:29.854Z,10.93
2022-10-14T00:38:58.215Z,10.20
2022-10-14T00:41:28.814Z,9.60
2022-10-14T00:44:04.866Z,9.30
2022-10-14T00:46:43.712Z,8.83
2022-10-14T00:49:21.387Z,8.23
2022-10-14T00:51:59.142Z,8.27
2022-10-14T00:54:41.214Z,7.50
2022-10-14T00:57:10.121Z,7.20
2022-10-14T00:59:38.478Z,8.13
2022-10-14T01:02:06.964Z,8.13
2022-10-14T01:04:36.569Z,7.70
2022-10-14T01:07:34.844Z,8.50
2022-10-14T01:10:20.812Z,8.17
2022-10-14T01:13:04.959Z,7.97
2022-10-14T01:15:41.980Z,7.60
2022-10-14T01:18:19.571Z,6.80
2022-10-14T01:21:23.970Z,6.33
2022-10-14T01:24:05.796Z,5.90
2022-10-14T01:26:44.372Z,6.77
2022-10-14T01:29:46.008Z,6.17
2022-10-14T01:32:24.333Z,6.00
2022-10-14T01:35:11.151Z,5.40
2022-10-14T01:37:42.029Z,5.00
2022-10-14T01:40:14.295Z,5.53
2022-10-14T01:42:42.725Z,5.37
2022-10-14T01:45:19.733Z,4.77
2022-10-14T01:47:49.785Z,5.03
2022-10-14T01:50:20.042Z,4.70
2022-10-14T01:53:02.527Z,5.40
2022-10-14T01:55:34.769Z,4.57
2022-10-14T01:58:03.482Z,4.27
2022-10-14T02:00:33.008Z,4.67
2022-10-14T02:03:03.478Z,4.23
2022-10-14T02:05:41.651Z,4.03
2022-10-14T02:08:21.190Z,3.77
2022-10-14T02:11:09.219Z,4.17
2022-10-14T02:13:50.451Z,3.50
2022-10-14T02:16:34.246Z,3.60
2022-10-14T02:19:33.181Z,3.37
2022-10-14T02:22:13.179Z,3.40
2022-10-14T02:24:43.784Z,3.37
2022-10-14T02:27:15.441Z,3.47
2022-10-14T02:29:45.620Z,3.47
2022-10-14T02:32:15.421Z,3.27
2022-10-14T02:34:45.666Z,3.13
2022-10-14T02:37:14.111Z,2.80
2022-10-14T02:39:45.080Z,3.47
2022-10-14T02:42:13.883Z,3.40
2022-10-14T02:44:58.008Z,3.00
2022-10-14T02:47:27.188Z,3.37
2022-10-14T02:49:55.937Z,3.23
2022-10-14T02:52:26.084Z,3.37
2022-10-14T02:54:54.951Z,3.47
2022-10-14T02:57:23.907Z,3.30
2022-10-14T02:59:52.256Z,3.23
2022-10-14T03:02:22.313Z,3.30
2022-10-14T03:04:51.469Z,3.23
2022-10-14T03:07:19.797Z,3.37
2022-10-14T03:09:53.269Z,3.23
2022-10-14T03:12:21.972Z,4.53
2022-10-14T03:14:51.622Z,3.27
2022-10-14T03:17:20.766Z,2.93
2022-10-14T03:19:51.431Z,2.93
2022-10-14T03:22:20.436Z,2.83
2022-10-14T03:24:49.131Z,3.03
2022-10-14T03:27:36.661Z,2.90
2022-10-14T03:30:10.500Z,2.43
2022-10-14T03:32:46.888Z,2.80
2022-10-14T03:35:30.830Z,2.67
2022-10-14T03:38:03.850Z,2.40
2022-10-14T03:40:35.680Z,3.10
2022-10-14T03:43:09.182Z,2.23
2022-10-14T03:45:46.800Z,2.87
2022-10-14T03:48:17.823Z,2.97
2022-10-14T03:50:47.812Z,2.67
2022-10-14T03:53:16.150Z,2.50
2022-10-14T03:55:45.970Z,2.57
2022-10-14T03:58:14.849Z,3.13
2022-10-14T04:00:50.014Z,2.67
2022-10-14T04:03:43.064Z,2.87
2022-10-14T04:06:11.474Z,2.67
2022-10-14T04:08:39.857Z,2.90
2022-10-14T04:11:20.936Z,3.00
2022-10-14T04:13:51.986Z,2.73
2022-10-14T04:16:21.174Z,3.07
2022-10-14T04:19:04.829Z,3.10
2022-10-14T04:21:33.240Z,3.17
2022-10-14T04:24:07.386Z,3.07
2022-10-14T04:26:43.269Z,3.27
2022-10-14T04:29:24.770Z,3.23
2022-10-14T04:32:03.442Z,2.97
2022-10-14T04:34:32.232Z,2.90
2022-10-14T04:37:01.681Z,2.87
2022-10-14T04:39:46.034Z,3.23
2022-10-14T04:42:14.480Z,3.30
2022-10-14T04:44:46.773Z,6.57
2022-10-14T04:47:16.614Z,7.63
2022-10-14T04:49:48.246Z,8.33
2022-10-14T04:52:21.501Z,7.63
2022-10-14T04:54:56.571Z,7.13
2022-10-14T04:57:35.917Z,6.10
2022-10-14T05:00:05.483Z,7.13
2022-10-14T05:02:56.685Z,5.50
2022-10-14T05:05:32.362Z,7.70
2022-10-14T05:08:03.960Z,9.33
2022-10-14T05:10:39.551Z,8.70
2022-10-14T05:13:12.327Z,7.03
2022-10-14T05:15:54.069Z,5.20
2022-10-14T05:18:23.341Z,4.17
2022-10-14T05:21:01.587Z,4.50
2022-10-14T05:23:50.066Z,6.43
2022-10-14T05:26:19.039Z,6.97
2022-10-14T05:28:49.188Z,7.10
2022-10-14T05:31:17.809Z,5.50
2022-10-14T05:33:53.566Z,5.23
2022-10-14T05:36:22.533Z,3.43
2022-10-14T05:38:51.019Z,4.23
2022-10-14T05:41:23.263Z,3.97
2022-10-14T05:43:52.059Z,3.20
2022-10-14T05:46:21.406Z,3.20
2022-10-14T05:48:57.231Z,3.70
2022-10-14T05:51:26.651Z,3.10
2022-10-14T05:54:02.594Z,3.70
2022-10-14T05:56:31.832Z,4.13
2022-10-14T05:59:00.521Z,4.53
2022-10-14T06:01:29.550Z,5.03
2022-10-14T06:03:58.731Z,4.47
2022-10-14T06:06:29.084Z,5.33
2022-10-14T06:08:59.062Z,5.10
2022-10-14T06:11:27.507Z,6.00
2022-10-14T06:13:56.593Z,5.87
2022-10-14T06:16:25.146Z,5.10
2022-10-14T06:18:54.588Z,4.83
2022-10-14T06:21:24.102Z,4.87
2022-10-14T06:23:52.586Z,4.73
2022-10-14T06:26:22.074Z,4.17
2022-10-14T06:28:50.577Z,6.43
2022-10-14T06:31:19.123Z,6.53
2022-10-14T06:33:47.570Z,5.87
2022-10-14T06:36:16.189Z,5.70
2022-10-14T06:38:44.616Z,5.33
2022-10-14T06:41:13.056Z,5.10
2022-10-14T06:43:42.738Z,5.03
2022-10-14T06:46:11.251Z,4.57
2022-10-14T06:48:39.766Z,4.00
2022-10-14T06:51:08.263Z,4.50
2022-10-14T06:53:36.701Z,3.87
2022-10-14T06:56:06.487Z,4.07
2022-10-14T06:58:35.048Z,4.40
2022-10-14T07:01:08.139Z,4.80
2022-10-14T07:03:37.235Z,4.97
2022-10-14T07:06:07.213Z,4.50
2022-10-14T07:08:35.693Z,4.63
2022-10-14T07:11:04.896Z,3.97
2022-10-14T07:13:34.767Z,3.63
2022-10-14T07:16:03.706Z,4.00
2022-10-14T07:18:32.369Z,3.57
2022-10-14T07:21:04.998Z,4.07
2022-10-14T07:23:33.529Z,3.80
2022-10-14T07:26:02.740Z,4.03
2022-10-14T07:28:31.428Z,3.73
2022-10-14T07:31:07.722Z,4.00
2022-10-14T07:36:10.557Z,3.60
2022-10-14T07:38:39.052Z,3.08
2022-10-14T07:41:16.787Z,2.97
2022-10-14T07:43:46.599Z,3.45
2022-10-14T07:46:15.660Z,3.15
2022-10-14T07:48:56.535Z,3.20
2022-10-14T07:51:27.797Z,2.97
2022-10-14T07:53:57.796Z,2.60
2022-10-14T07:56:26.438Z,2.60
2022-10-14T07:58:55.675Z,2.17
2022-10-14T08:01:25.018Z,2.58
2022-10-14T08:03:53.913Z,2.22
2022-10-14T08:06:22.842Z,2.20
2022-10-14T08:08:51.592Z,2.38
2022-10-14T08:11:28.217Z,2.03
2022-10-14T08:13:58.226Z,1.50
2022-10-14T08:16:29.094Z,2.13
2022-10-14T08:18:59.678Z,2.05
2022-10-14T08:21:28.779Z,2.05
2022-10-14T08:23:57.809Z,2.33
2022-10-14T08:26:35.713Z,2.17
2022-10-14T08:29:10.855Z,2.20
2022-10-14T08:31:39.705Z,1.90
2022-10-14T08:34:11.228Z,1.98
2022-10-14T08:36:40.580Z,1.80
2022-10-14T08:42:00.400Z,1.83
2022-10-14T08:44:38.183Z,2.05
2022-10-14T08:47:16.086Z,1.58
2022-10-14T08:50:06.277Z,1.50
2022-10-14T08:52:58.294Z,2.03
2022-10-14T08:55:47.222Z,2.05
2022-10-14T08:58:32.445Z,2.17
2022-10-14T09:01:24.601Z,1.83
2022-10-14T09:03:55.304Z,1.98
2022-10-14T09:06:29.595Z,2.25
2022-10-14T09:09:01.267Z,1.75
2022-10-14T09:11:33.652Z,1.58
2022-10-14T09:14:04.186Z,1.70
2022-10-14T09:16:36.705Z,1.63
2022-10-14T09:19:09.567Z,1.58
2022-10-14T09:21:52.165Z,1.90
2022-10-14T09:24:22.861Z,1.90
2022-10-14T09:27:01.407Z,1.92
2022-10-14T09:29:33.480Z,1.38
2022-10-14T09:32:05.302Z,1.80
2022-10-14T09:34:48.094Z,1.80
2022-10-14T09:37:28.413Z,1.77
2022-10-14T09:40:07.959Z,2.00
2022-10-14T09:42:52.235Z,1.70
2022-10-14T09:45:25.254Z,1.70
2022-10-14T09:47:58.416Z,1.48
2022-10-14T09:50:38.805Z,1.60
2022-10-14T09:53:18.216Z,1.45
2022-10-14T09:55:55.119Z,1.63
2022-10-14T09:58:37.200Z,1.50
2022-10-14T10:01:13.977Z,1.17
2022-10-14T10:03:47.025Z,1.65
2022-10-14T10:06:20.616Z,1.60
2022-10-14T10:08:56.794Z,1.80
2022-10-14T10:11:39.914Z,1.70
2022-10-14T10:14:31.768Z,1.42
2022-10-14T10:17:10.660Z,1.73
2022-10-14T10:19:46.186Z,1.55
2022-10-14T10:22:32.348Z,1.35
2022-10-14T10:25:04.356Z,1.70
2022-10-14T10:27:37.944Z,1.40
2022-10-14T10:30:21.222Z,1.20
2022-10-14T10:33:27.959Z,1.73
2022-10-14T10:36:42.094Z,1.70
2022-10-14T10:39:29.049Z,1.52
2022-10-14T10:42:04.782Z,1.70
2022-10-14T10:44:51.888Z,2.10
2022-10-14T10:47:33.004Z,2.40
2022-10-14T10:50:13.092Z,2.50
2022-10-14T10:53:18.074Z,3.53
2022-10-14T10:56:15.381Z,4.00
2022-10-14T10:58:55.358Z,4.10
2022-10-14T11:01:37.153Z,3.20
2022-10-14T11:04:27.081Z,1.90
2022-10-14T11:07:37.647Z,1.95
2022-10-14T11:10:39.798Z,2.63
2022-10-14T11:13:30.769Z,2.45
2022-10-14T11:16:21.763Z,1.67
2022-10-14T11:18:55.966Z,2.10
2022-10-14T11:21:55.780Z,2.33
2022-10-14T11:24:55.059Z,1.45
2022-10-14T11:27:44.974Z,1.63
2022-10-14T11:30:25.740Z,1.23
2022-10-14T11:33:16.173Z,1.60
2022-10-14T11:35:56.830Z,1.48
2022-10-14T11:38:36.035Z,1.20
2022-10-14T11:41:33.986Z,1.40
2022-10-14T11:44:15.396Z,1.52
2022-10-14T11:46:46.229Z,1.83
2022-10-14T11:49:32.279Z,1.52
2022-10-14T11:52:08.061Z,1.50
2022-10-14T11:54:40.892Z,1.30
2022-10-14T11:57:55.410Z,1.10
2022-10-14T12:00:43.843Z,1.33
2022-10-14T12:03:32.508Z,1.60
2022-10-14T12:06:05.745Z,1.30
2022-10-14T12:08:40.713Z,1.40
2022-10-14T12:11:38.178Z,1.50
2022-10-14T12:14:21.815Z,3.40
2022-10-14T12:16:50.637Z,4.25
2022-10-14T12:19:28.696Z,3.45
2022-10-14T12:22:05.797Z,4.10
2022-10-14T12:24:37.646Z,2.30
2022-10-14T12:27:07.142Z,1.92
2022-10-14T12:29:42.181Z,2.70
2022-10-14T12:32:30.433Z,1.92
2022-10-14T12:35:01.938Z,2.28
2022-10-14T12:37:35.680Z,2.78
2022-10-14T12:40:06.071Z,2.30
2022-10-14T12:43:01.857Z,1.42
2022-10-14T12:45:35.226Z,2.20
2022-10-14T12:48:06.039Z,1.35
2022-10-14T12:50:38.317Z,1.85
2022-10-14T12:53:27.940Z,2.15
2022-10-14T12:56:00.553Z,1.50
2022-10-14T12:58:56.233Z,2.58
2022-10-14T13:01:24.619Z,2.08
2022-10-14T13:06:44.474Z,2.78
2022-10-14T13:09:12.807Z,3.50
2022-10-14T13:11:42.474Z,2.25
2022-10-14T13:14:28.123Z,1.20
2022-10-14T13:16:57.626Z,1.42
2022-10-14T13:19:35.194Z,1.60
2022-10-14T13:22:33.201Z,1.80
2022-10-14T13:25:15.993Z,2.38
2022-10-14T13:28:01.907Z,2.08
2022-10-14T13:30:51.290Z,1.70
2022-10-14T13:33:42.294Z,1.30
2022-10-14T13:36:42.842Z,1.20
2022-10-14T13:39:12.129Z,3.05
2022-10-14T13:41:41.350Z,2.17
2022-10-14T13:44:10.465Z,2.20
2022-10-14T13:46:43.508Z,2.47
2022-10-14T13:49:23.853Z,2.30
2022-10-14T13:51:53.214Z,2.20
2022-10-14T13:54:24.098Z,1.40
2022-10-14T13:57:38.268Z,1.80
2022-10-14T14:00:39.559Z,1.63
2022-10-14T14:02:48.106Z,1.50
2022-10-14T14:05:22.594Z,1.50
2022-10-14T14:11:03.763Z,2.67
2022-10-14T14:13:30.419Z,2.70
2022-10-14T14:15:59.658Z,2.28
2022-10-14T14:18:49.462Z,2.88
2022-10-14T14:21:27.331Z,3.28
2022-10-14T14:23:58.515Z,2.05
2022-10-14T14:26:39.732Z,1.63
2022-10-14T14:29:18.307Z,1.92
2022-10-14T14:32:05.556Z,1.98
2022-10-14T14:34:35.645Z,2.65
2022-10-14T14:39:57.206Z,2.63
2022-10-14T14:42:33.645Z,3.67
2022-10-14T14:45:05.274Z,2.22
2022-10-14T14:47:33.855Z,2.50
2022-10-14T14:52:53.010Z,1.43
2022-10-14T14:55:41.150Z,1.85
2022-10-14T14:58:44.926Z,2.35
2022-10-14T15:01:26.947Z,2.10
2022-10-14T15:04:12.621Z,31.95
2022-10-14T15:06:51.706Z,5.32
2022-10-14T15:09:34.945Z,3.83
2022-10-14T15:12:18.102Z,3.42
2022-10-14T15:14:49.904Z,3.05
2022-10-14T15:17:40.336Z,2.67
2022-10-14T15:20:11.980Z,2.50
2022-10-14T15:22:41.603Z,2.78
2022-10-14T15:25:23.837Z,2.00
2022-10-14T15:27:55.191Z,2.40
2022-10-14T15:30:39.519Z,2.22
2022-10-14T15:33:16.973Z,1.90
2022-10-14T15:35:54.491Z,3.28
2022-10-14T15:38:23.157Z,3.17
2022-10-14T15:40:52.338Z,3.23
2022-10-14T15:43:27.703Z,3.87
2022-10-14T15:46:19.113Z,3.70
2022-10-14T15:48:55.306Z,2.20
2022-10-14T15:51:23.854Z,1.90
2022-10-14T15:53:52.863Z,2.23
2022-10-14T15:56:21.604Z,2.55
2022-10-14T15:58:50.190Z,2.33
2022-10-14T16:01:21.467Z,1.63
2022-10-14T16:03:56.344Z,1.27
2022-10-14T16:06:24.919Z,0.95
2022-10-14T16:08:57.939Z,1.10
2022-10-14T16:11:27.702Z,1.13
2022-10-14T16:13:56.609Z,1.27
2022-10-14T16:16:33.502Z,0.90
2022-10-14T16:19:05.202Z,1.10
2022-10-14T16:21:33.977Z,1.20
2022-10-14T16:24:03.377Z,0.80
2022-10-14T16:26:33.280Z,0.83
2022-10-14T16:29:03.930Z,1.07
2022-10-14T16:31:34.377Z,1.00
2022-10-14T16:34:03.143Z,1.00
2022-10-14T16:36:36.928Z,0.90
2022-10-14T16:39:11.334Z,0.97
2022-10-14T16:41:40.210Z,1.03
2022-10-14T16:44:09.240Z,1.10
2022-10-14T16:46:56.540Z,1.20
2022-10-14T16:49:26.358Z,1.10
2022-10-14T16:52:05.521Z,2.47
2022-10-14T16:54:43.243Z,1.70
2022-10-14T16:57:35.026Z,2.03
2022-10-14T17:00:04.223Z,2.77
2022-10-14T17:02:38.021Z,3.03
2022-10-14T17:05:17.203Z,3.23
2022-10-14T17:08:07.002Z,2.77
2022-10-14T17:10:40.814Z,3.43
2022-10-14T17:13:09.584Z,5.03
2022-10-14T17:15:39.909Z,4.20
2022-10-14T17:18:12.246Z,3.70
2022-10-14T17:20:44.273Z,4.13
2022-10-14T17:23:13.820Z,4.67
2022-10-14T17:25:57.604Z,5.83
2022-10-14T17:28:30.161Z,5.63
2022-10-14T17:31:06.062Z,4.30
2022-10-14T17:33:52.149Z,4.90
2022-10-14T17:36:28.772Z,5.13
2022-10-14T17:39:06.837Z,7.13
2022-10-14T17:41:35.590Z,8.00
2022-10-14T17:44:13.359Z,7.93
2022-10-14T17:46:59.713Z,6.90
2022-10-14T17:49:32.702Z,9.57
2022-10-14T17:52:06.655Z,8.63
2022-10-14T17:54:37.967Z,8.97
2022-10-14T17:57:11.756Z,7.60
2022-10-14T17:59:47.962Z,7.47
2022-10-14T18:02:20.337Z,7.60
2022-10-14T18:04:48.959Z,7.20
2022-10-14T18:07:25.793Z,7.10
2022-10-14T18:09:56.846Z,7.33
2022-10-14T18:12:25.562Z,8.13
2022-10-14T18:14:58.652Z,6.87
2022-10-14T18:17:30.765Z,7.03
2022-10-14T18:20:04.518Z,7.67
2022-10-14T18:22:34.597Z,8.10
2022-10-14T18:25:07.970Z,10.20
2022-10-14T18:27:38.630Z,7.80
2022-10-14T18:30:12.237Z,7.43
2022-10-14T18:32:57.584Z,6.03
2022-10-14T18:35:29.116Z,5.70
2022-10-14T18:37:58.034Z,6.20
2022-10-14T18:40:26.511Z,5.50
2022-10-14T18:43:01.002Z,6.73
2022-10-14T18:45:29.538Z,7.63
2022-10-14T18:48:00.497Z,6.10
2022-10-14T18:50:30.251Z,5.43
2022-10-14T18:53:21.085Z,4.80
2022-10-14T18:55:58.014Z,4.37
2022-10-14T18:58:32.212Z,4.70
2022-10-14T19:01:08.350Z,4.63
2022-10-14T19:03:40.484Z,4.33
2022-10-14T19:06:13.301Z,5.00
2022-10-14T19:08:42.542Z,5.63
2022-10-14T19:11:18.410Z,5.20
2022-10-14T19:14:17.786Z,5.27
2022-10-14T19:16:55.200Z,6.10
2022-10-14T19:19:29.275Z,6.07
2022-10-14T19:22:19.293Z,6.43
2022-10-14T19:24:55.959Z,7.23
2022-10-14T19:30:27.047Z,9.97
2022-10-14T19:32:57.753Z,12.73
2022-10-14T19:35:28.379Z,11.40
2022-10-14T19:37:58.847Z,13.70
2022-10-14T19:40:28.106Z,12.00
2022-10-14T19:43:05.027Z,13.73
2022-10-14T19:45:41.193Z,15.87
2022-10-14T19:48:13.377Z,12.47
2022-10-14T19:50:46.514Z,13.37
2022-10-14T19:53:15.644Z,15.47
2022-10-14T19:55:49.296Z,15.93
2022-10-14T19:58:18.305Z,16.83
2022-10-14T20:00:47.254Z,15.27
2022-10-14T20:03:18.393Z,17.73
2022-10-14T20:05:49.078Z,21.07
2022-10-14T20:08:18.200Z,22.03
2022-10-14T20:10:46.813Z,27.37
2022-10-14T20:13:15.606Z,22.03
2022-10-14T20:15:45.887Z,22.63
2022-10-14T20:18:18.994Z,17.43
2022-10-14T20:20:48.080Z,16.63
2022-10-14T20:23:19.361Z,14.77
2022-10-14T20:25:47.832Z,13.77
2022-10-14T20:28:19.933Z,14.23
2022-10-14T20:30:49.915Z,14.17
2022-10-14T20:33:18.930Z,13.20
2022-10-14T20:35:47.934Z,14.47
2022-10-14T20:38:16.835Z,17.60
2022-10-14T20:40:45.326Z,15.27
2022-10-14T20:43:13.753Z,18.00
2022-10-14T20:45:45.119Z,15.40
2022-10-14T20:48:14.075Z,14.73
2022-10-14T20:50:42.839Z,15.10
2022-10-14T20:53:11.293Z,15.37
2022-10-14T20:55:40.996Z,15.67
2022-10-14T20:58:09.464Z,16.90
2022-10-14T21:00:38.148Z,19.13
2022-10-14T21:03:06.544Z,19.83
2022-10-14T21:05:37.569Z,20.03
2022-10-14T21:08:06.074Z,18.43
2022-10-14T21:10:34.474Z,11.60
2022-10-14T21:13:03.514Z,12.53
2022-10-14T21:15:31.977Z,11.00
2022-10-14T21:18:01.325Z,9.60
2022-10-14T21:20:29.787Z,7.77
2022-10-14T21:22:58.298Z,7.90
2022-10-14T21:25:27.196Z,7.37
2022-10-14T21:27:55.573Z,7.93
2022-10-14T21:30:25.163Z,7.83
2022-10-14T21:32:54.262Z,6.83
2022-10-14T21:35:22.623Z,7.17
2022-10-14T21:37:53.022Z,7.10
2022-10-14T21:40:21.612Z,7.67
2022-10-14T21:42:50.032Z,10.17
2022-10-14T21:45:18.651Z,13.73
2022-10-14T21:47:47.026Z,12.40
2022-10-14T21:50:15.841Z,12.17
2022-10-14T21:52:44.266Z,13.43
2022-10-14T21:55:12.845Z,12.33
2022-10-14T21:57:41.366Z,10.70
2022-10-14T22:00:11.363Z,10.90
2022-10-14T22:02:39.743Z,9.00
2022-10-14T22:05:08.941Z,9.03
2022-10-14T22:07:37.279Z,7.97
2022-10-14T22:10:26.593Z,7.20
2022-10-14T22:12:57.031Z,8.23
2022-10-14T22:15:27.281Z,8.10
2022-10-14T22:17:57.062Z,7.73
2022-10-14T22:20:26.802Z,6.93
2022-10-14T22:22:55.139Z,7.57
2022-10-14T22:25:23.490Z,7.80
2022-10-14T22:27:51.863Z,8.17
2022-10-14T22:30:20.923Z,7.57
2022-10-14T22:32:49.683Z,7.90
2022-10-14T22:35:18.043Z,7.00
2022-10-14T22:37:46.900Z,6.93
2022-10-14T22:40:15.427Z,7.37
2022-10-14T22:42:46.582Z,6.43
2022-10-14T22:45:16.434Z,6.03
2022-10-14T22:47:44.870Z,5.63
2022-10-14T22:50:13.158Z,5.10
2022-10-14T22:52:41.464Z,4.97
2022-10-14T22:55:10.331Z,5.30
2022-10-14T22:57:38.620Z,4.87
2022-10-14T23:00:07.713Z,4.53
2022-10-14T23:02:36.092Z,5.00
2022-10-14T23:05:05.562Z,4.47
2022-10-14T23:07:34.042Z,4.83
2022-10-14T23:10:02.459Z,4.20
2022-10-14T23:12:30.833Z,3.63
2022-10-14T23:14:59.222Z,4.00
2022-10-14T23:17:27.501Z,3.90
2022-10-14T23:19:55.808Z,10.03
2022-10-14T23:22:24.507Z,5.47
2022-10-14T23:24:53.233Z,3.77
2022-10-14T23:27:21.557Z,3.33
2022-10-14T23:29:49.977Z,3.33
2022-10-14T23:34:47.545Z,3.37
2022-10-14T23:37:15.894Z,3.37
2022-10-14T23:39:45.465Z,3.70
2022-10-14T23:42:13.792Z,3.40
2022-10-14T23:44:42.256Z,3.10
2022-10-14T23:47:10.854Z,2.77
2022-10-14T23:49:39.879Z,2.60
2022-10-14T23:52:08.119Z,2.77
2022-10-14T23:54:36.627Z,3.40
2022-10-14T23:57:06.705Z,2.97
2022-10-14T23:59:35.056Z,3.20
